Time;durP1;ratioP1;P1;durP2;ratioP2;P2;SDS_P1;SDS_P2;PMS_P1;PMS_P2;Temp;Humidity;BMP_temperature;BMP_pressure;BME280_temperature;BME280_humidity;BME280_pressure;Samples;Min_cycle;Max_cycle;Signal;HPM_P1;HPM_P2
2022/01/07 00:01:32;;;;;;;8.93;4.20;;;2.40;54.80;;;;;;5085956;28;34164;-75
2022/01/07 00:03:58;;;;;;;8.40;4.25;;;2.40;54.80;;;;;;5069524;28;34145;-75
2022/01/07 00:06:24;;;;;;;10.07;3.88;;;2.40;54.70;;;;;;5085861;27;34200;-75
2022/01/07 00:08:51;;;;;;;6.70;4.05;;;2.30;54.90;;;;;;5084722;28;36727;-75
2022/01/07 00:11:17;;;;;;;6.57;3.30;;;2.30;54.90;;;;;;5086389;28;34352;-75
2022/01/07 00:13:43;;;;;;;7.72;3.95;;;2.30;54.90;;;;;;5086086;28;34308;-75
2022/01/07 00:16:11;;;;;;;9.85;4.30;;;2.30;54.90;;;;;;5085743;28;34249;-75
2022/01/07 00:18:39;;;;;;;7.15;3.45;;;2.30;54.90;;;;;;5085846;28;36446;-75
2022/01/07 00:21:05;;;;;;;8.13;4.88;;;2.30;54.80;;;;;;5085429;28;34459;-75
2022/01/07 00:23:32;;;;;;;9.05;4.53;;;2.30;54.80;;;;;;5085485;28;34409;-75
2022/01/07 00:25:58;;;;;;;7.65;4.78;;;2.30;54.80;;;;;;5085435;28;34102;-76
2022/01/07 00:28:24;;;;;;;9.80;3.78;;;2.30;54.70;;;;;;5112520;27;35547;-75
2022/01/07 00:30:50;;;;;;;4.75;3.42;;;2.30;54.70;;;;;;5062403;28;34147;-75
2022/01/07 00:33:16;;;;;;;6.70;3.75;;;2.30;54.80;;;;;;5045116;28;34290;-75
2022/01/07 00:35:42;;;;;;;5.88;3.80;;;2.30;54.80;;;;;;5062387;28;34350;-75
2022/01/07 00:38:08;;;;;;;8.15;4.20;;;2.20;54.80;;;;;;5061621;28;35506;-75
2022/01/07 00:40:35;;;;;;;6.85;3.58;;;2.20;54.70;;;;;;5062002;28;34302;-75
2022/01/07 00:43:01;;;;;;;9.48;3.55;;;2.20;54.70;;;;;;5061343;28;34203;-75
2022/01/07 00:45:27;;;;;;;6.57;3.53;;;2.20;54.90;;;;;;5061676;28;34037;-75
2022/01/07 00:47:54;;;;;;;9.35;3.78;;;2.20;54.90;;;;;;5060945;28;35747;-75
2022/01/07 00:50:22;;;;;;;8.20;4.03;;;2.20;54.90;;;;;;5061757;28;34160;-75
2022/01/07 00:52:48;;;;;;;7.70;4.18;;;2.20;54.90;;;;;;5044887;28;34357;-75
2022/01/07 00:55:15;;;;;;;7.57;3.22;;;2.20;55.00;;;;;;5061457;28;34484;-75
2022/01/07 00:57:42;;;;;;;6.28;3.60;;;2.20;55.10;;;;;;5061218;28;35835;-75
2022/01/07 01:00:11;;;;;;;7.93;3.60;;;2.20;55.10;;;;;;5062794;28;34410;-75
2022/01/07 01:02:37;;;;;;;8.13;3.53;;;2.20;55.00;;;;;;5061802;28;34227;-75
2022/01/07 01:05:05;;;;;;;5.45;3.30;;;2.30;55.20;;;;;;5061529;28;34231;-76
2022/01/07 01:07:31;;;;;;;5.95;3.90;;;2.30;55.20;;;;;;5062444;28;35005;-75
2022/01/07 01:09:58;;;;;;;5.90;3.30;;;2.30;55.10;;;;;;5062330;28;34327;-76
2022/01/07 01:12:24;;;;;;;4.78;3.42;;;2.30;55.90;;;;;;5061183;28;34214;-75
2022/01/07 01:14:50;;;;;;;7.13;3.20;;;2.30;55.20;;;;;;5061437;28;34218;-75
2022/01/07 01:17:17;;;;;;;5.60;3.03;;;2.40;55.20;;;;;;5060977;28;36176;-75
2022/01/07 01:19:43;;;;;;;10.23;3.47;;;2.40;55.20;;;;;;5081326;28;34361;-75
2022/01/07 01:22:09;;;;;;;5.90;3.10;;;2.40;55.20;;;;;;5064828;28;34473;-75
2022/01/07 01:24:35;;;;;;;8.68;3.28;;;2.40;55.20;;;;;;5066016;28;34376;-75
2022/01/07 01:27:02;;;;;;;7.05;3.47;;;2.40;55.10;;;;;;5065655;28;34313;-75
2022/01/07 01:29:28;;;;;;;9.77;3.50;;;2.50;55.20;;;;;;5064853;28;34246;-75
2022/01/07 01:31:54;;;;;;;3.95;3.53;;;2.50;55.20;;;;;;5064702;28;34405;-75
2022/01/07 01:34:20;;;;;;;7.10;3.33;;;2.50;55.20;;;;;;5048320;28;34275;-75
2022/01/07 01:36:47;;;;;;;8.25;3.38;;;2.50;55.10;;;;;;5065349;28;34257;-75
2022/01/07 01:39:13;;;;;;;8.95;3.38;;;2.50;55.10;;;;;;5066003;28;34101;-75
2022/01/07 01:41:41;;;;;;;7.45;3.65;;;2.60;55.10;;;;;;5065713;28;34148;-76
2022/01/07 01:44:07;;;;;;;4.07;2.75;;;2.60;55.10;;;;;;5064660;28;34175;-75
2022/01/07 01:46:34;;;;;;;4.80;3.00;;;2.60;55.10;;;;;;5047498;28;35692;-75
2022/01/07 01:49:00;;;;;;;5.50;3.35;;;2.60;55.10;;;;;;5064579;28;34162;-75
2022/01/07 01:51:26;;;;;;;8.27;3.25;;;2.60;55.00;;;;;;5064731;28;34226;-75
2022/01/07 01:53:53;;;;;;;8.55;3.83;;;2.70;55.10;;;;;;5064624;28;34454;-75
2022/01/07 01:56:19;;;;;;;5.07;3.08;;;2.70;55.10;;;;;;5064049;28;36130;-75
2022/01/07 01:58:45;;;;;;;12.52;3.65;;;2.70;55.00;;;;;;5081556;28;34223;-75
2022/01/07 02:01:11;;;;;;;9.02;3.53;;;2.80;54.90;;;;;;5064597;28;34191;-76
2022/01/07 02:03:37;;;;;;;6.18;3.17;;;2.80;54.90;;;;;;5064311;28;34089;-75
2022/01/07 02:06:03;;;;;;;4.07;3.03;;;2.80;54.90;;;;;;5064827;28;36141;-76
2022/01/07 02:08:30;;;;;;;5.20;3.10;;;2.80;54.80;;;;;;5064528;28;34272;-75
2022/01/07 02:10:58;;;;;;;4.18;2.78;;;2.80;54.80;;;;;;5081194;28;34343;-75
2022/01/07 02:13:24;;;;;;;7.03;3.25;;;2.90;54.70;;;;;;5064350;28;34144;-75
2022/01/07 02:15:50;;;;;;;7.80;3.55;;;2.90;54.70;;;;;;5063268;28;35769;-76
2022/01/07 02:18:17;;;;;;;4.40;3.08;;;3.00;54.70;;;;;;5063978;28;34228;-76
2022/01/07 02:20:44;;;;;;;9.80;3.50;;;3.00;54.70;;;;;;5063836;28;34377;-76
2022/01/07 02:23:10;;;;;;;9.10;3.25;;;3.00;54.60;;;;;;5063941;28;34609;-76
2022/01/07 02:25:36;;;;;;;4.43;3.22;;;3.00;54.60;;;;;;5063805;28;35534;-76
2022/01/07 02:28:03;;;;;;;7.22;3.15;;;3.00;54.50;;;;;;5064449;28;34501;-75
2022/01/07 02:30:30;;;;;;;4.72;3.33;;;3.10;54.40;;;;;;5104922;27;34370;-75
2022/01/07 02:32:58;;;;;;;4.20;3.28;;;3.10;54.40;;;;;;5070522;28;34316;-76
2022/01/07 02:35:28;;;;;;;6.20;3.03;;;3.20;54.40;;;;;;5087479;28;36102;-75
2022/01/07 02:37:54;;;;;;;4.10;2.50;;;3.20;54.50;;;;;;5087252;28;34211;-75
2022/01/07 02:40:21;;;;;;;5.90;2.75;;;3.20;54.40;;;;;;5087138;28;34316;-75
2022/01/07 02:42:47;;;;;;;4.57;3.10;;;3.20;54.20;;;;;;5086679;28;34150;-75
2022/01/07 02:45:14;;;;;;;8.93;2.90;;;3.20;54.00;;;;;;5086842;28;36339;-76
2022/01/07 02:47:49;;;;;;;6.80;2.65;;;3.10;53.90;;;;;;5087113;28;34254;-75
2022/01/07 02:50:18;;;;;;;5.95;2.63;;;3.20;53.80;;;;;;5104966;28;34113;-76
2022/01/07 02:52:44;;;;;;;8.40;2.35;;;3.30;54.00;;;;;;5088104;28;34266;-76
2022/01/07 02:55:11;;;;;;;5.25;2.75;;;3.30;53.90;;;;;;5086237;28;35724;-76
2022/01/07 02:57:37;;;;;;;4.32;2.47;;;3.40;53.60;;;;;;5070645;28;34104;-76
2022/01/07 03:00:07;;;;;;;6.38;2.83;;;3.40;53.20;;;;;;5104628;28;34473;-76
2022/01/07 03:02:33;;;;;;;4.88;2.22;;;3.40;53.30;;;;;;5086787;28;34060;-76
2022/01/07 03:04:59;;;;;;;3.75;2.05;;;3.50;53.50;;;;;;5104521;28;34445;-77
2022/01/07 03:07:25;;;;;;;7.78;2.40;;;3.40;52.70;;;;;;5087060;28;34500;-76
2022/01/07 03:09:51;;;;;;;3.58;2.35;;;3.50;52.90;;;;;;5086766;28;34306;-76
2022/01/07 03:12:17;;;;;;;4.90;2.30;;;3.50;53.10;;;;;;5087203;28;34404;-76
2022/01/07 03:14:43;;;;;;;7.15;2.40;;;3.50;52.80;;;;;;5086650;28;36464;-76
2022/01/07 03:17:09;;;;;;;4.85;2.28;;;3.50;52.80;;;;;;5086821;28;34237;-76
2022/01/07 03:19:35;;;;;;;4.53;2.35;;;3.60;52.70;;;;;;5086675;28;34170;-75
2022/01/07 03:22:02;;;;;;;4.85;2.08;;;3.60;52.40;;;;;;5070057;28;34232;-76
2022/01/07 03:24:28;;;;;;;4.57;2.67;;;3.60;52.50;;;;;;5103862;27;36024;-76
2022/01/07 03:26:54;;;;;;;7.72;2.30;;;3.70;52.50;;;;;;5104609;28;34296;-75
2022/01/07 03:29:20;;;;;;;3.13;2.15;;;3.70;52.60;;;;;;5088941;28;34258;-76
2022/01/07 03:31:46;;;;;;;4.32;1.83;;;3.70;52.50;;;;;;5064151;28;34327;-76
2022/01/07 03:34:12;;;;;;;3.03;2.15;;;3.70;52.30;;;;;;5045768;28;36250;-76
2022/01/07 03:36:38;;;;;;;4.95;1.80;;;3.70;52.20;;;;;;5062914;28;34215;-76
2022/01/07 03:39:04;;;;;;;7.47;2.00;;;3.70;52.50;;;;;;5062321;28;34139;-76
2022/01/07 03:41:30;;;;;;;5.82;2.20;;;3.70;52.10;;;;;;5062866;28;34471;-76
2022/01/07 03:43:57;;;;;;;4.15;2.03;;;3.70;52.20;;;;;;5062094;28;35761;-75
2022/01/07 03:46:23;;;;;;;4.35;2.15;;;3.70;52.10;;;;;;5063182;28;34236;-76
2022/01/07 03:48:49;;;;;;;3.08;1.95;;;3.70;52.10;;;;;;5064724;28;34321;-76
2022/01/07 03:51:15;;;;;;;4.05;2.00;;;3.70;52.30;;;;;;5062919;28;34186;-76
2022/01/07 03:53:41;;;;;;;4.13;1.58;;;3.70;51.90;;;;;;5062033;28;35637;-75
2022/01/07 03:56:07;;;;;;;3.40;2.03;;;3.70;51.90;;;;;;5063307;28;34053;-76
2022/01/07 03:58:33;;;;;;;6.13;1.88;;;3.80;52.10;;;;;;5062752;28;34106;-75
2022/01/07 04:00:59;;;;;;;2.72;1.98;;;3.80;52.20;;;;;;5062903;28;34121;-76
2022/01/07 04:03:25;;;;;;;5.15;2.15;;;3.80;52.10;;;;;;5062329;28;36606;-75
2022/01/07 04:05:51;;;;;;;3.72;1.77;;;3.80;52.00;;;;;;5063489;28;34128;-76
2022/01/07 04:08:17;;;;;;;2.80;1.67;;;3.80;52.20;;;;;;5062510;28;34263;-75
2022/01/07 04:10:43;;;;;;;4.55;1.88;;;3.80;52.00;;;;;;5062829;28;34219;-76
2022/01/07 04:13:09;;;;;;;1.75;1.50;;;3.80;51.50;;;;;;5062438;28;36705;-76
2022/01/07 04:15:36;;;;;;;2.15;1.55;;;3.80;51.50;;;;;;5062526;28;34118;-76
2022/01/07 04:18:02;;;;;;;2.95;1.65;;;3.80;51.50;;;;;;5062181;28;34196;-75
2022/01/07 04:20:31;;;;;;;4.03;1.40;;;3.90;51.50;;;;;;5062523;28;34159;-76
2022/01/07 04:22:58;;;;;;;4.10;1.63;;;3.90;51.50;;;;;;5078526;28;35146;-76
2022/01/07 04:25:25;;;;;;;5.85;1.77;;;3.90;51.50;;;;;;5062241;28;34097;-76
2022/01/07 04:27:56;;;;;;;6.97;1.80;;;3.90;51.30;;;;;;5063190;28;34331;-76
2022/01/07 04:30:24;;;;;;;3.58;1.60;;;4.00;51.60;;;;;;5045925;28;34639;-75
2022/01/07 04:32:53;;;;;;;4.43;1.60;;;4.00;51.40;;;;;;5062971;28;34579;-75
2022/01/07 04:35:21;;;;;;;3.40;1.35;;;4.00;51.40;;;;;;5079057;28;34175;-75
2022/01/07 04:37:47;;;;;;;3.40;1.70;;;4.00;51.50;;;;;;5062316;28;34333;-75
2022/01/07 04:40:16;;;;;;;3.10;1.60;;;4.00;51.30;;;;;;5062472;28;34600;-75
2022/01/07 04:42:42;;;;;;;4.38;1.80;;;4.00;51.30;;;;;;5061548;28;36438;-75
2022/01/07 04:45:09;;;;;;;4.03;1.90;;;4.00;51.10;;;;;;5063779;28;34315;-76
2022/01/07 04:47:36;;;;;;;3.70;1.63;;;3.90;50.90;;;;;;5062152;28;34123;-75
2022/01/07 04:50:05;;;;;;;3.97;1.88;;;4.00;51.00;;;;;;5062589;28;34208;-76
2022/01/07 04:52:31;;;;;;;2.17;1.50;;;3.90;50.30;;;;;;5061515;28;35861;-76
2022/01/07 04:54:58;;;;;;;3.25;1.55;;;4.00;50.80;;;;;;5062209;28;34342;-75
2022/01/07 04:57:24;;;;;;;2.92;1.40;;;3.90;50.40;;;;;;5045014;28;34423;-75
2022/01/07 04:59:50;;;;;;;3.45;1.60;;;3.90;50.40;;;;;;5079302;28;34502;-75
2022/01/07 05:02:19;;;;;;;4.63;1.77;;;4.00;51.10;;;;;;5061646;28;36477;-76
2022/01/07 05:04:46;;;;;;;3.65;1.55;;;3.90;50.60;;;;;;5061568;28;34212;-75
2022/01/07 05:07:12;;;;;;;7.07;1.83;;;4.00;50.70;;;;;;5061177;28;34032;-75
2022/01/07 05:09:38;;;;;;;1.50;1.40;;;4.00;50.80;;;;;;5062738;28;34082;-75
2022/01/07 05:12:04;;;;;;;1.85;1.27;;;4.00;51.00;;;;;;5078242;28;35042;-75
2022/01/07 05:14:31;;;;;;;4.22;1.85;;;4.00;50.70;;;;;;5062760;28;34185;-75
2022/01/07 05:16:57;;;;;;;2.22;1.20;;;4.00;50.70;;;;;;5078116;28;34266;-76
2022/01/07 05:19:23;;;;;;;1.95;1.30;;;4.00;50.70;;;;;;5061756;28;34063;-75
2022/01/07 05:21:49;;;;;;;3.85;1.90;;;4.00;51.00;;;;;;5061036;28;36188;-75
2022/01/07 05:24:15;;;;;;;2.67;1.48;;;4.00;50.50;;;;;;5078081;28;34406;-75
2022/01/07 05:26:42;;;;;;;2.63;1.55;;;4.00;50.40;;;;;;5077794;28;34391;-75
2022/01/07 05:29:08;;;;;;;6.43;1.77;;;4.00;50.90;;;;;;5060968;28;34202;-75
2022/01/07 05:31:34;;;;;;;4.25;1.60;;;4.00;51.10;;;;;;5061312;28;36080;-75
2022/01/07 05:34:00;;;;;;;2.28;1.25;;;4.00;51.10;;;;;;5061233;28;34080;-75
2022/01/07 05:36:26;;;;;;;2.35;1.52;;;4.00;50.70;;;;;;5061483;28;34144;-75
2022/01/07 05:38:52;;;;;;;4.90;1.40;;;4.00;51.20;;;;;;5061257;28;34176;-75
2022/01/07 05:41:20;;;;;;;4.32;1.55;;;4.00;51.00;;;;;;5061398;28;36466;-75
2022/01/07 05:43:46;;;;;;;2.30;1.60;;;4.00;51.00;;;;;;5060820;28;34400;-76
2022/01/07 05:46:14;;;;;;;5.97;1.92;;;4.00;50.70;;;;;;5061739;28;34469;-75
2022/01/07 05:48:44;;;;;;;3.03;1.45;;;4.00;51.30;;;;;;5061323;28;34390;-75
2022/01/07 05:51:10;;;;;;;1.95;1.40;;;4.00;51.30;;;;;;5060580;28;36053;-76
2022/01/07 05:53:37;;;;;;;2.88;1.30;;;4.00;51.20;;;;;;5060445;28;34250;-75
2022/01/07 05:56:04;;;;;;;2.72;1.50;;;3.90;51.60;;;;;;5061219;28;34416;-75
2022/01/07 05:58:30;;;;;;;4.55;1.52;;;3.90;51.40;;;;;;5060351;28;34200;-75
2022/01/07 06:00:56;;;;;;;4.57;1.30;;;4.00;51.60;;;;;;5059908;28;35975;-75
2022/01/07 06:03:22;;;;;;;3.08;1.80;;;3.90;51.80;;;;;;5060612;28;34361;-75
2022/01/07 06:05:48;;;;;;;9.93;1.90;;;3.90;51.90;;;;;;5062260;28;34465;-75
2022/01/07 06:08:15;;;;;;;2.30;1.40;;;3.90;52.00;;;;;;5064315;28;34059;-75
2022/01/07 06:10:41;;;;;;;5.05;1.50;;;3.90;52.00;;;;;;5065310;28;34993;-75
2022/01/07 06:13:07;;;;;;;1.88;1.40;;;3.80;52.00;;;;;;5064162;28;34196;-75
2022/01/07 06:15:34;;;;;;;4.00;1.70;;;3.80;52.00;;;;;;5064102;28;34315;-75
2022/01/07 06:18:03;;;;;;;4.63;1.48;;;3.80;52.20;;;;;;5064220;28;34258;-75
2022/01/07 06:20:30;;;;;;;3.78;1.40;;;3.70;52.40;;;;;;5063957;28;35591;-76
2022/01/07 06:22:56;;;;;;;6.10;2.13;;;3.60;52.60;;;;;;5064131;28;34396;-75
2022/01/07 06:25:22;;;;;;;4.63;1.88;;;3.60;52.70;;;;;;5063702;28;34116;-76
2022/01/07 06:27:48;;;;;;;2.90;1.35;;;3.50;52.80;;;;;;5063973;28;34293;-75
2022/01/07 06:30:14;;;;;;;1.40;1.20;;;3.50;52.90;;;;;;5063864;28;36527;-75
2022/01/07 06:32:40;;;;;;;3.65;1.00;;;3.50;53.10;;;;;;5063569;28;34223;-75
2022/01/07 06:35:09;;;;;;;1.77;1.30;;;3.50;53.10;;;;;;5063163;28;34211;-75
2022/01/07 06:37:35;;;;;;;5.03;1.65;;;3.50;53.00;;;;;;5047268;28;34392;-76
2022/01/07 06:40:02;;;;;;;2.28;1.60;;;3.50;53.00;;;;;;5064539;28;34222;-75
2022/01/07 06:42:28;;;;;;;5.40;1.42;;;3.40;53.10;;;;;;5064958;28;34211;-76
2022/01/07 06:44:54;;;;;;;2.15;1.40;;;3.40;53.20;;;;;;5064039;28;34463;-76
2022/01/07 06:47:20;;;;;;;5.82;1.65;;;3.40;53.30;;;;;;5063764;28;34308;-76
2022/01/07 06:49:46;;;;;;;2.00;1.55;;;3.40;53.30;;;;;;5064593;28;34548;-76
2022/01/07 06:52:12;;;;;;;5.43;1.85;;;3.40;53.50;;;;;;5063716;28;34173;-75
2022/01/07 06:54:39;;;;;;;3.08;1.40;;;3.40;53.60;;;;;;5064920;28;34277;-75
2022/01/07 06:57:05;;;;;;;2.60;1.58;;;3.40;53.50;;;;;;5062889;28;34338;-75
2022/01/07 06:59:31;;;;;;;2.78;1.15;;;3.40;53.60;;;;;;5080092;28;34987;-76
2022/01/07 07:01:57;;;;;;;3.97;1.45;;;3.40;53.70;;;;;;5062989;28;34174;-75
2022/01/07 07:04:24;;;;;;;3.28;1.50;;;3.40;53.70;;;;;;5064024;28;34077;-75
2022/01/07 07:06:50;;;;;;;1.67;1.35;;;3.40;53.70;;;;;;5063599;28;34172;-75
2022/01/07 07:09:18;;;;;;;1.77;1.33;;;3.40;53.70;;;;;;5063415;28;35662;-75
2022/01/07 07:11:44;;;;;;;3.08;1.60;;;3.40;53.60;;;;;;5064243;28;34368;-75
2022/01/07 07:14:11;;;;;;;2.10;1.38;;;3.40;53.50;;;;;;5064273;28;34185;-75
2022/01/07 07:16:37;;;;;;;2.17;1.20;;;3.40;53.60;;;;;;5063294;28;34090;-75
2022/01/07 07:19:04;;;;;;;2.10;0.93;;;3.40;53.70;;;;;;5063336;28;35747;-75
2022/01/07 07:21:30;;;;;;;2.97;1.02;;;3.30;53.70;;;;;;5063139;28;34226;-75
2022/01/07 07:23:56;;;;;;;4.18;1.27;;;3.40;53.80;;;;;;5063280;28;34301;-75
2022/01/07 07:26:22;;;;;;;1.27;1.17;;;3.40;53.80;;;;;;5063900;28;34383;-75
2022/01/07 07:28:48;;;;;;;1.35;1.20;;;3.40;53.70;;;;;;5072741;28;35606;-75
2022/01/07 07:31:17;;;;;;;3.38;1.20;;;3.40;53.60;;;;;;5105752;28;34290;-75
2022/01/07 07:34:06;;;;;;;1.05;0.93;;;3.40;53.90;;;;;;5071401;28;34128;-75
2022/01/07 07:36:30;;;;;;;1.85;1.30;;;3.40;53.90;;;;;;5090927;28;34425;-75
2022/01/07 07:39:04;;;;;;;2.65;1.10;;;3.40;53.90;;;;;;5070300;27;35592;-74
2022/01/07 07:41:32;;;;;;;1.38;1.27;;;3.50;54.00;;;;;;5087842;28;34131;-75
2022/01/07 07:43:59;;;;;;;2.08;1.40;;;3.50;54.00;;;;;;5105448;28;34121;-75
2022/01/07 07:46:27;;;;;;;4.55;1.48;;;3.40;53.70;;;;;;5105849;28;34316;-76
2022/01/07 07:48:53;;;;;;;0.93;0.90;;;3.50;53.80;;;;;;5087269;28;36108;-76
2022/01/07 07:51:20;;;;;;;1.33;0.98;;;3.40;53.70;;;;;;5071039;28;34206;-76
2022/01/07 07:53:46;;;;;;;5.05;1.10;;;3.50;53.90;;;;;;5087493;28;34076;-76
2022/01/07 07:56:15;;;;;;;1.35;0.98;;;3.50;53.80;;;;;;5087712;28;34376;-75
2022/01/07 07:58:42;;;;;;;0.90;0.90;;;3.50;53.70;;;;;;5070604;28;35522;-75
2022/01/07 08:01:10;;;;;;;0.77;0.77;;;3.50;53.80;;;;;;5087090;28;34106;-76
2022/01/07 08:03:37;;;;;;;2.83;0.88;;;3.50;53.90;;;;;;5087404;28;34302;-76
2022/01/07 08:06:03;;;;;;;1.30;0.90;;;3.60;53.80;;;;;;5105001;28;34238;-75
2022/01/07 08:08:29;;;;;;;2.08;0.70;;;3.50;53.70;;;;;;5070463;28;36059;-76
2022/01/07 08:10:59;;;;;;;1.23;0.90;;;3.50;54.00;;;;;;5105363;28;34337;-76
2022/01/07 08:13:28;;;;;;;0.77;0.77;;;3.60;54.10;;;;;;5086494;28;34339;-76
2022/01/07 08:16:00;;;;;;;1.30;0.90;;;3.50;54.00;;;;;;5086858;28;34456;-75
2022/01/07 08:18:28;;;;;;;1.02;0.80;;;3.60;54.10;;;;;;5086993;28;35855;-76
2022/01/07 08:20:56;;;;;;;2.22;0.90;;;3.60;54.00;;;;;;5086302;28;34142;-75
2022/01/07 08:23:22;;;;;;;0.93;0.65;;;3.50;54.10;;;;;;5068874;28;34093;-76
2022/01/07 08:25:49;;;;;;;2.22;0.93;;;3.50;54.10;;;;;;5085704;28;34492;-76
2022/01/07 08:28:17;;;;;;;0.80;0.80;;;3.50;54.10;;;;;;5083649;28;35816;-76
2022/01/07 08:36:08;;;;;;;1.60;0.73;;;3.60;54.10;;;;;;5088322;28;34172;-75
2022/01/07 08:38:34;;;;;;;1.33;0.85;;;3.60;54.10;;;;;;5068982;28;36807;-76
2022/01/07 08:41:00;;;;;;;0.85;0.80;;;3.60;54.00;;;;;;5085288;28;34193;-76
2022/01/07 08:43:26;;;;;;;1.60;0.80;;;3.60;54.20;;;;;;5103637;27;34145;-76
2022/01/07 08:45:52;;;;;;;1.55;0.70;;;3.60;54.20;;;;;;5102731;28;34337;-76
2022/01/07 08:48:27;;;;;;;0.50;0.50;;;3.60;54.20;;;;;;5085985;28;34208;-76
2022/01/07 08:50:54;;;;;;;1.00;0.70;;;3.60;54.10;;;;;;5085369;28;34305;-75
2022/01/07 08:53:20;;;;;;;0.63;0.60;;;3.60;54.00;;;;;;5103578;27;34280;-76
2022/01/07 08:55:48;;;;;;;1.52;0.65;;;3.60;54.20;;;;;;5085678;28;34203;-76
2022/01/07 08:58:14;;;;;;;0.82;0.52;;;3.70;54.10;;;;;;5085119;28;35811;-76
2022/01/07 09:00:40;;;;;;;0.82;0.77;;;3.70;54.20;;;;;;5085591;28;34218;-75
2022/01/07 09:03:06;;;;;;;1.55;0.80;;;3.70;54.00;;;;;;5068201;28;34246;-75
2022/01/07 09:05:32;;;;;;;2.67;1.00;;;3.80;54.00;;;;;;5085502;28;34360;-75
2022/01/07 09:07:58;;;;;;;1.77;0.80;;;3.70;54.00;;;;;;5084152;28;35478;-76
2022/01/07 09:10:24;;;;;;;0.68;0.68;;;3.70;53.90;;;;;;5085864;28;34218;-75
2022/01/07 09:12:51;;;;;;;0.70;0.70;;;3.80;54.10;;;;;;5068335;28;34168;-76
2022/01/07 09:15:17;;;;;;;1.13;1.00;;;3.80;54.00;;;;;;5067706;28;34324;-75
2022/01/07 09:17:43;;;;;;;1.17;1.08;;;3.80;53.90;;;;;;5084922;28;35661;-76
2022/01/07 09:20:10;;;;;;;1.05;1.00;;;3.80;53.90;;;;;;5085010;28;34259;-75
2022/01/07 09:22:36;;;;;;;0.60;0.60;;;3.80;53.90;;;;;;5085397;28;34327;-76
2022/01/07 09:25:05;;;;;;;1.33;0.85;;;3.80;53.90;;;;;;5068895;28;34252;-76
2022/01/07 09:27:34;;;;;;;0.88;0.80;;;3.90;53.80;;;;;;5084425;28;35520;-76
2022/01/07 09:30:00;;;;;;;0.50;0.50;;;3.90;54.00;;;;;;5065517;28;34402;-75
2022/01/07 09:32:26;;;;;;;0.95;0.80;;;3.90;54.20;;;;;;5078337;28;34490;-75
2022/01/07 09:34:52;;;;;;;0.90;0.68;;;3.90;54.00;;;;;;5060985;28;34557;-76
2022/01/07 09:37:18;;;;;;;0.77;0.70;;;3.90;53.90;;;;;;5060873;28;35585;-76
2022/01/07 09:39:44;;;;;;;1.00;0.70;;;4.00;54.50;;;;;;5062571;28;35161;-75
2022/01/07 09:42:10;;;;;;;1.05;1.00;;;4.00;53.90;;;;;;5065239;28;34492;-76
2022/01/07 09:44:38;;;;;;;0.73;0.60;;;4.00;53.70;;;;;;5065901;28;34329;-76
2022/01/07 09:47:05;;;;;;;1.10;1.00;;;4.00;53.90;;;;;;5065311;28;34315;-75
2022/01/07 09:49:34;;;;;;;1.15;0.90;;;4.00;54.10;;;;;;5064552;28;34255;-76
2022/01/07 09:52:01;;;;;;;0.85;0.73;;;3.90;54.10;;;;;;5066041;28;34345;-75
2022/01/07 09:54:27;;;;;;;1.27;1.00;;;3.90;54.10;;;;;;5064800;28;34449;-76
2022/01/07 09:56:53;;;;;;;0.75;0.75;;;3.90;54.30;;;;;;5065048;28;35037;-76
2022/01/07 09:59:19;;;;;;;2.72;0.90;;;4.00;54.90;;;;;;5064487;28;34117;-76
2022/01/07 10:01:55;;;;;;;0.70;0.70;;;4.00;54.20;;;;;;5064351;28;34212;-76
2022/01/07 10:04:38;;;;;;;0.75;0.75;;;4.10;54.30;;;;;;5064829;28;34456;-76
2022/01/07 10:07:21;;;;;;;1.00;0.90;;;4.10;54.30;;;;;;5080413;28;35113;-76
2022/01/07 10:10:12;;;;;;;1.05;0.90;;;4.10;54.40;;;;;;5064775;28;34276;-76
2022/01/07 10:13:03;;;;;;;1.00;0.90;;;4.20;54.20;;;;;;5064087;28;34239;-76
2022/01/07 10:15:35;;;;;;;1.25;0.73;;;4.20;54.10;;;;;;5064629;28;33994;-76
2022/01/07 10:18:06;;;;;;;2.17;1.05;;;4.20;54.00;;;;;;5065022;28;34859;-76
2022/01/07 10:20:36;;;;;;;2.10;0.90;;;4.20;54.10;;;;;;5065342;28;34233;-76
2022/01/07 10:23:05;;;;;;;1.17;1.08;;;4.20;53.90;;;;;;5065198;28;34294;-75
2022/01/07 10:25:34;;;;;;;0.90;0.90;;;4.30;54.00;;;;;;5065813;28;34215;-76
2022/01/07 10:28:06;;;;;;;0.98;0.90;;;4.30;54.00;;;;;;5064467;28;35779;-76
2022/01/07 10:30:36;;;;;;;1.55;1.10;;;4.30;53.90;;;;;;5084184;28;34264;-75
2022/01/07 10:33:19;;;;;;;1.20;1.10;;;4.30;53.90;;;;;;5084104;28;34113;-76
2022/01/07 10:35:47;;;;;;;0.93;0.93;;;4.30;54.00;;;;;;5085561;28;34276;-76
2022/01/07 10:38:16;;;;;;;2.78;1.20;;;4.30;53.90;;;;;;5067031;28;35694;-76
2022/01/07 10:40:43;;;;;;;1.15;1.05;;;4.30;54.10;;;;;;5101062;27;34194;-75
2022/01/07 10:43:32;;;;;;;1.10;1.00;;;4.30;54.10;;;;;;5085191;28;34502;-76
2022/01/07 10:46:19;;;;;;;0.98;0.98;;;4.30;54.30;;;;;;5084039;28;34476;-75
2022/01/07 10:48:55;;;;;;;1.20;1.10;;;4.30;54.20;;;;;;5101034;27;36048;-76
2022/01/07 10:51:25;;;;;;;1.20;1.10;;;4.20;54.10;;;;;;5117327;27;34219;-75
2022/01/07 10:53:54;;;;;;;1.45;1.35;;;4.20;54.10;;;;;;5085049;28;34208;-76
2022/01/07 10:56:23;;;;;;;1.90;1.42;;;4.20;54.20;;;;;;5117797;27;34135;-76
2022/01/07 10:58:56;;;;;;;2.17;1.45;;;4.30;54.30;;;;;;5117645;27;35615;-75
2022/01/07 11:01:43;;;;;;;1.48;1.23;;;4.20;54.10;;;;;;5084945;28;34220;-76
2022/01/07 11:04:13;;;;;;;1.15;1.05;;;4.30;54.60;;;;;;5100713;27;34202;-75
2022/01/07 11:06:40;;;;;;;2.25;1.50;;;4.30;54.50;;;;;;5118469;27;34452;-76
2022/01/07 11:09:09;;;;;;;1.17;1.08;;;4.30;54.50;;;;;;5117950;27;35704;-76
2022/01/07 11:11:44;;;;;;;1.65;1.40;;;4.30;54.60;;;;;;5118036;27;34083;-76
2022/01/07 11:14:15;;;;;;;2.58;1.58;;;4.30;54.40;;;;;;5100955;27;34210;-75
2022/01/07 11:16:41;;;;;;;1.58;1.40;;;4.30;54.40;;;;;;5117633;27;34529;-76
2022/01/07 11:19:08;;;;;;;2.60;1.40;;;4.30;54.60;;;;;;5100306;27;35679;-76
2022/01/07 11:21:36;;;;;;;3.25;1.77;;;4.30;54.40;;;;;;5101007;27;34217;-75
2022/01/07 11:24:37;;;;;;;2.05;1.75;;;4.30;54.60;;;;;;5100611;27;34193;-75
2022/01/07 11:27:26;;;;;;;2.20;1.50;;;4.30;54.70;;;;;;5071124;28;34208;-76
2022/01/07 11:30:11;;;;;;;3.25;1.80;;;4.30;54.70;;;;;;5067511;28;34631;-76
2022/01/07 11:32:40;;;;;;;2.85;1.63;;;4.30;55.00;;;;;;5062659;28;34199;-76
2022/01/07 11:35:41;;;;;;;2.78;1.70;;;4.30;54.80;;;;;;5045786;28;34433;-76
2022/01/07 11:38:14;;;;;;;4.20;1.70;;;4.30;55.00;;;;;;5079180;28;34335;-75
2022/01/07 11:40:46;;;;;;;5.38;1.98;;;4.20;54.80;;;;;;5062520;28;36309;-76
2022/01/07 11:43:32;;;;;;;3.45;2.13;;;4.30;55.00;;;;;;5062686;28;34288;-76
2022/01/07 11:46:20;;;;;;;3.40;1.88;;;4.20;54.90;;;;;;5062245;28;34294;-76
2022/01/07 11:48:46;;;;;;;3.00;2.40;;;4.20;55.00;;;;;;5062646;28;34199;-76
2022/01/07 11:51:16;;;;;;;3.63;2.30;;;4.30;55.00;;;;;;5062092;28;36236;-76
2022/01/07 11:54:03;;;;;;;2.20;1.95;;;4.30;55.00;;;;;;5062692;28;34232;-76
2022/01/07 11:56:30;;;;;;;1.88;1.77;;;4.30;55.10;;;;;;5046041;28;34345;-76
2022/01/07 11:58:59;;;;;;;1.75;1.65;;;4.30;55.00;;;;;;5062297;28;34125;-76
2022/01/07 12:01:31;;;;;;;6.75;2.10;;;4.40;54.90;;;;;;5062664;28;35946;-76
2022/01/07 12:04:00;;;;;;;3.58;2.25;;;4.40;55.00;;;;;;5060621;28;34293;-76
2022/01/07 12:06:46;;;;;;;3.67;2.35;;;4.30;54.90;;;;;;5062609;28;34284;-76
2022/01/07 12:09:20;;;;;;;5.53;2.20;;;4.40;55.10;;;;;;5063616;28;34327;-76
2022/01/07 12:11:58;;;;;;;3.55;2.28;;;4.40;55.00;;;;;;5046031;28;35809;-76
2022/01/07 12:14:41;;;;;;;3.90;2.20;;;4.40;55.00;;;;;;5062721;28;34528;-76
2022/01/07 12:17:13;;;;;;;2.38;2.10;;;4.50;55.10;;;;;;5062173;28;34363;-76
2022/01/07 12:20:19;;;;;;;5.55;2.30;;;4.50;55.00;;;;;;5062417;28;34254;-75
2022/01/07 12:22:47;;;;;;;4.05;2.40;;;4.50;55.40;;;;;;5062728;28;34479;-76
2022/01/07 12:25:13;;;;;;;2.80;2.10;;;4.50;55.20;;;;;;5063186;28;34296;-76
2022/01/07 12:27:39;;;;;;;4.47;2.45;;;4.50;55.30;;;;;;5062902;28;34291;-76
2022/01/07 12:30:05;;;;;;;3.13;2.22;;;4.50;55.40;;;;;;5061876;28;34524;-76
2022/01/07 12:32:36;;;;;;;3.70;2.20;;;4.50;55.30;;;;;;5061566;28;36422;-76
2022/01/07 12:35:04;;;;;;;3.33;2.47;;;4.50;55.20;;;;;;5061893;28;34307;-77
2022/01/07 12:37:31;;;;;;;4.88;2.33;;;4.50;55.30;;;;;;5061895;28;34502;-76
2022/01/07 12:39:59;;;;;;;3.78;2.45;;;4.60;55.20;;;;;;5062307;28;34335;-76
2022/01/07 12:42:27;;;;;;;3.67;2.67;;;4.60;55.30;;;;;;5062295;28;35592;-76
2022/01/07 12:44:57;;;;;;;3.75;2.55;;;4.60;55.40;;;;;;5061739;28;34305;-75
2022/01/07 12:47:26;;;;;;;3.63;2.30;;;4.60;55.40;;;;;;5062694;28;34192;-76
2022/01/07 12:49:55;;;;;;;2.80;2.30;;;4.60;55.30;;;;;;5062367;28;34400;-76
2022/01/07 12:52:24;;;;;;;3.10;2.00;;;4.70;55.50;;;;;;5061265;28;36402;-76
2022/01/07 12:55:10;;;;;;;3.17;2.42;;;4.70;55.20;;;;;;5062795;28;34456;-76
2022/01/07 12:57:48;;;;;;;4.93;2.58;;;4.80;55.20;;;;;;5062254;28;34393;-76
2022/01/07 13:00:26;;;;;;;2.40;1.92;;;4.70;55.30;;;;;;5062162;28;34648;-76
2022/01/07 13:02:56;;;;;;;2.53;2.15;;;4.70;55.40;;;;;;5045127;28;35943;-76
2022/01/07 13:05:40;;;;;;;4.22;2.60;;;4.70;55.20;;;;;;5061972;28;34287;-76
2022/01/07 13:08:17;;;;;;;2.70;1.70;;;4.80;55.10;;;;;;5061478;28;34175;-76
2022/01/07 13:10:48;;;;;;;1.85;1.60;;;4.90;55.20;;;;;;5077964;28;34263;-76